Arabi, Georgia
Current Conditions -  °F | °C
As of 6:15 AM on Thursday 23 Oct 2014 (Local Time) from KCKF Reporting Station
Clear Clear  
Wind Chill: 45°   Ceiling: Unl
Heat Index: 45°   Visibility: 10mi
Dew Point: 42°   Wind: 3mph
Humidity: 90%   Direction: 70°ENE
Pressure: 30.09"   Gusts: NA
Location:  31.83°N, 83.74°W
Report Text: KCKF 231015Z AUTO 07003KT 10SM CLR 07/06 A3009 RMK AO2 T00700055
Loading
Personal Weather Stations






























Interactive Weather Map
Tropical Storm Tracking
New forecast layout! Learn more

10-Day Weather Forecast

Advertisements
Track Severe Weather on mobile